sensor_id;sensor_type;location;lat;lon;timestamp;pressure;altitude;pressure_sealevel;temperature;humidity
31357;BME280;60001;48.404;11.738;2023-02-22T00:00:16;96248.66;;;5.93;72.81
31357;BME280;60001;48.404;11.738;2023-02-22T00:01:52;96233.44;;;5.83;73.38
31357;BME280;60001;48.404;11.738;2023-02-22T00:03:40;96249.94;;;5.84;73.36
31357;BME280;60001;48.404;11.738;2023-02-22T00:05:11;96250.19;;;5.82;73.37
31357;BME280;60001;48.404;11.738;2023-02-22T00:06:46;96251.88;;;5.76;73.88
31357;BME280;60001;48.404;11.738;2023-02-22T00:08:21;96238.28;;;5.68;73.86
31357;BME280;60001;48.404;11.738;2023-02-22T00:09:53;96246.50;;;5.71;73.98
31357;BME280;60001;48.404;11.738;2023-02-22T00:11:24;96249.13;;;5.71;74.33
31357;BME280;60001;48.404;11.738;2023-02-22T00:12:58;96245.91;;;5.69;73.91
31357;BME280;60001;48.404;11.738;2023-02-22T00:14:29;96251.63;;;5.66;74.21
31357;BME280;60001;48.404;11.738;2023-02-22T00:16:01;96245.00;;;5.64;74.49
31357;BME280;60001;48.404;11.738;2023-02-22T00:17:33;96241.78;;;5.62;74.64
31357;BME280;60001;48.404;11.738;2023-02-22T00:19:04;96248.63;;;5.63;75.14
31357;BME280;60001;48.404;11.738;2023-02-22T00:20:37;96238.75;;;5.65;74.86
31357;BME280;60001;48.404;11.738;2023-02-22T00:22:09;96237.50;;;5.67;74.79
31357;BME280;60001;48.404;11.738;2023-02-22T00:23:42;96235.44;;;5.69;75.32
31357;BME280;60001;48.404;11.738;2023-02-22T00:25:18;96222.34;;;5.69;75.08
31357;BME280;60001;48.404;11.738;2023-02-22T00:26:54;96228.38;;;5.70;74.87
31357;BME280;60001;48.404;11.738;2023-02-22T00:28:28;96232.81;;;5.69;75.60
31357;BME280;60001;48.404;11.738;2023-02-22T00:30:00;96233.03;;;5.68;75.70
31357;BME280;60001;48.404;11.738;2023-02-22T00:31:36;96232.25;;;5.67;75.40
31357;BME280;60001;48.404;11.738;2023-02-22T00:33:08;96234.31;;;5.65;75.72
31357;BME280;60001;48.404;11.738;2023-02-22T00:34:39;96220.63;;;5.63;75.18
31357;BME280;60001;48.404;11.738;2023-02-22T00:36:13;96229.94;;;5.59;75.31
31357;BME280;60001;48.404;11.738;2023-02-22T00:37:46;96227.75;;;5.56;75.93
31357;BME280;60001;48.404;11.738;2023-02-22T00:39:17;96228.56;;;5.57;75.59
31357;BME280;60001;48.404;11.738;2023-02-22T00:40:50;96231.41;;;5.55;76.02
31357;BME280;60001;48.404;11.738;2023-02-22T00:42:22;96226.94;;;5.56;75.80
31357;BME280;60001;48.404;11.738;2023-02-22T00:43:55;96230.59;;;5.55;76.03
31357;BME280;60001;48.404;11.738;2023-02-22T00:45:28;96227.75;;;5.56;75.66
31357;BME280;60001;48.404;11.738;2023-02-22T00:47:00;96226.94;;;5.56;75.66
31357;BME280;60001;48.404;11.738;2023-02-22T00:48:31;96234.00;;;5.55;75.89
31357;BME280;60001;48.404;11.738;2023-02-22T00:50:04;96230.38;;;5.56;76.01
31357;BME280;60001;48.404;11.738;2023-02-22T00:51:36;96228.56;;;5.57;76.10
31357;BME280;60001;48.404;11.738;2023-02-22T00:53:08;96222.09;;;5.59;75.98
31357;BME280;60001;48.404;11.738;2023-02-22T00:54:41;96221.06;;;5.60;76.57
31357;BME280;60001;48.404;11.738;2023-02-22T00:56:13;96215.59;;;5.62;76.13
31357;BME280;60001;48.404;11.738;2023-02-22T00:57:44;96222.22;;;5.64;76.86
31357;BME280;60001;48.404;11.738;2023-02-22T00:59:17;96211.03;;;5.57;77.03
31357;BME280;60001;48.404;11.738;2023-02-22T01:00:49;96225.41;;;5.66;76.48
31357;BME280;60001;48.404;11.738;2023-02-22T01:02:21;96225.97;;;5.68;76.37
31357;BME280;60001;48.404;11.738;2023-02-22T01:03:52;96227.25;;;5.66;76.68
31357;BME280;60001;48.404;11.738;2023-02-22T01:05:26;96215.03;;;5.60;76.15
31357;BME280;60001;48.404;11.738;2023-02-22T01:06:57;96216.03;;;5.59;76.24
31357;BME280;60001;48.404;11.738;2023-02-22T01:08:29;96217.50;;;5.55;76.18
31357;BME280;60001;48.404;11.738;2023-02-22T01:10:02;96225.81;;;5.52;76.10
31357;BME280;60001;48.404;11.738;2023-02-22T01:11:33;96218.19;;;5.50;76.11
31357;BME280;60001;48.404;11.738;2023-02-22T01:13:06;96218.38;;;5.48;76.37
31357;BME280;60001;48.404;11.738;2023-02-22T01:14:40;96219.88;;;5.44;76.62
31357;BME280;60001;48.404;11.738;2023-02-22T01:16:11;96211.44;;;5.42;76.25
31357;BME280;60001;48.404;11.738;2023-02-22T01:17:43;96209.47;;;5.38;76.44
31357;BME280;60001;48.404;11.738;2023-02-22T01:19:14;96214.25;;;5.41;76.42
31357;BME280;60001;48.404;11.738;2023-02-22T01:20:46;96209.63;;;5.43;76.62
31357;BME280;60001;48.404;11.738;2023-02-22T01:22:19;96206.19;;;5.42;76.52
31357;BME280;60001;48.404;11.738;2023-02-22T01:23:51;96202.97;;;5.40;76.89
31357;BME280;60001;48.404;11.738;2023-02-22T01:25:26;96204.81;;;5.40;77.19
31357;BME280;60001;48.404;11.738;2023-02-22T01:26:58;96196.94;;;5.40;76.98
31357;BME280;60001;48.404;11.738;2023-02-22T01:28:31;96209.47;;;5.38;76.85
31357;BME280;60001;48.404;11.738;2023-02-22T01:30:06;96201.03;;;5.36;76.54
31357;BME280;60001;48.404;11.738;2023-02-22T01:31:38;96202.50;;;5.32;76.28
31357;BME280;60001;48.404;11.738;2023-02-22T01:33:10;96202.72;;;5.30;76.44
31357;BME280;60001;48.404;11.738;2023-02-22T01:34:44;96202.94;;;5.29;76.79
31357;BME280;60001;48.404;11.738;2023-02-22T01:36:17;96203.38;;;5.26;76.73
31357;BME280;60001;48.404;11.738;2023-02-22T01:37:48;96205.63;;;5.22;76.71
31357;BME280;60001;48.404;11.738;2023-02-22T01:39:20;96193.84;;;5.13;76.85
31357;BME280;60001;48.404;11.738;2023-02-22T01:40:51;96201.06;;;5.17;76.53
31357;BME280;60001;48.404;11.738;2023-02-22T01:42:23;96193.63;;;5.14;77.02
31357;BME280;60001;48.404;11.738;2023-02-22T01:43:54;96192.81;;;5.14;77.24
31357;BME280;60001;48.404;11.738;2023-02-22T01:45:48;96195.91;;;5.11;77.03
31357;BME280;60001;48.404;11.738;2023-02-22T01:47:19;96195.09;;;5.10;76.83
31357;BME280;60001;48.404;11.738;2023-02-22T01:48:55;96197.16;;;5.08;76.80
31357;BME280;60001;48.404;11.738;2023-02-22T01:50:27;96188.69;;;5.06;77.52
31357;BME280;60001;48.404;11.738;2023-02-22T01:52:04;96189.28;;;5.08;77.37
31357;BME280;60001;48.404;11.738;2023-02-22T01:53:45;96186.44;;;5.10;77.84
31357;BME280;60001;48.404;11.738;2023-02-22T01:55:19;96167.63;;;5.01;77.77
31357;BME280;60001;48.404;11.738;2023-02-22T01:56:58;96183.59;;;5.11;78.01
31357;BME280;60001;48.404;11.738;2023-02-22T01:58:35;96180.41;;;5.09;77.48
31357;BME280;60001;48.404;11.738;2023-02-22T02:00:13;96180.66;;;5.08;77.10
31357;BME280;60001;48.404;11.738;2023-02-22T02:01:48;96170.03;;;5.03;77.51
31357;BME280;60001;48.404;11.738;2023-02-22T02:03:33;96176.06;;;5.03;77.62
31357;BME280;60001;48.404;11.738;2023-02-22T02:05:07;96174.47;;;5.02;77.91
31357;BME280;60001;48.404;11.738;2023-02-22T02:06:39;96178.09;;;5.01;77.53
31357;BME280;60001;48.404;11.738;2023-02-22T02:08:22;96173.66;;;5.02;78.25
31357;BME280;60001;48.404;11.738;2023-02-22T02:09:57;96177.28;;;5.01;77.97
31357;BME280;60001;48.404;11.738;2023-02-22T02:11:31;96179.09;;;5.00;78.04
31357;BME280;60001;48.404;11.738;2023-02-22T02:13:03;96175.69;;;5.00;78.17
31357;BME280;60001;48.404;11.738;2023-02-22T02:14:35;96172.50;;;4.98;77.46
31357;BME280;60001;48.404;11.738;2023-02-22T02:16:09;96175.34;;;4.96;77.89
31357;BME280;60001;48.404;11.738;2023-02-22T02:17:42;96170.31;;;4.94;77.46
31357;BME280;60001;48.404;11.738;2023-02-22T02:19:22;96169.53;;;4.94;77.74
31357;BME280;60001;48.404;11.738;2023-02-22T02:23:21;96173.94;;;4.93;78.58
31357;BME280;60001;48.404;11.738;2023-02-22T02:27:26;96167.13;;;4.92;78.28
31357;BME280;60001;48.404;11.738;2023-02-22T02:29:42;96166.31;;;4.92;78.34
31357;BME280;60001;48.404;11.738;2023-02-22T02:31:36;96167.34;;;4.91;78.09
31357;BME280;60001;48.404;11.738;2023-02-22T02:33:20;96167.34;;;4.91;78.82
31357;BME280;60001;48.404;11.738;2023-02-22T02:35:02;96163.56;;;4.87;78.54
31357;BME280;60001;48.404;11.738;2023-02-22T02:36:45;96155.13;;;4.85;78.11
31357;BME280;60001;48.404;11.738;2023-02-22T02:38:30;96159.78;;;4.83;78.05
31357;BME280;60001;48.404;11.738;2023-02-22T02:40:14;96155.56;;;4.82;78.11
31357;BME280;60001;48.404;11.738;2023-02-22T02:41:50;96154.19;;;4.79;78.17
31357;BME280;60001;48.404;11.738;2023-02-22T02:43:30;96151.78;;;4.78;78.58
31357;BME280;60001;48.404;11.738;2023-02-22T02:45:07;96148.59;;;4.76;78.25
31357;BME280;60001;48.404;11.738;2023-02-22T02:46:48;96151.00;;;4.77;78.82
31357;BME280;60001;48.404;11.738;2023-02-22T02:48:27;96151.00;;;4.77;78.87
31357;BME280;60001;48.404;11.738;2023-02-22T02:50:03;96152.59;;;4.78;78.58
31357;BME280;60001;48.404;11.738;2023-02-22T02:51:40;96143.94;;;4.78;79.16
31357;BME280;60001;48.404;11.738;2023-02-22T02:53:18;96147.13;;;4.80;79.46
31357;BME280;60001;48.404;11.738;2023-02-22T02:54:53;96145.34;;;4.80;78.92
31357;BME280;60001;48.404;11.738;2023-02-22T02:56:26;96142.72;;;4.80;78.95
31357;BME280;60001;48.404;11.738;2023-02-22T02:57:58;96141.69;;;4.81;78.88
31357;BME280;60001;48.404;11.738;2023-02-22T02:59:31;96136.88;;;4.78;79.31
31357;BME280;60001;48.404;11.738;2023-02-22T03:01:04;96145.34;;;4.80;79.02
31357;BME280;60001;48.404;11.738;2023-02-22T03:02:46;96133.47;;;4.78;79.00
31357;BME280;60001;48.404;11.738;2023-02-22T03:04:41;96128.69;;;4.75;78.15
31357;BME280;60001;48.404;11.738;2023-02-22T03:06:46;96134.56;;;4.70;78.18
31357;BME280;60001;48.404;11.738;2023-02-22T03:08:29;96122.13;;;4.65;77.94
31357;BME280;60001;48.404;11.738;2023-02-22T03:10:19;96127.97;;;4.67;78.58
31357;BME280;60001;48.404;11.738;2023-02-22T03:12:05;96119.91;;;4.69;78.99
31357;BME280;60001;48.404;11.738;2023-02-22T03:13:42;96128.09;;;4.73;78.69
31357;BME280;60001;48.404;11.738;2023-02-22T03:15:26;96117.22;;;4.76;79.39
31357;BME280;60001;48.404;11.738;2023-02-22T03:17:14;96111.09;;;4.82;79.44
31357;BME280;60001;48.404;11.738;2023-02-22T03:18:53;96121.72;;;4.87;79.55
31357;BME280;60001;48.404;11.738;2023-02-22T03:20:31;96108.97;;;4.90;79.93
31357;BME280;60001;48.404;11.738;2023-02-22T03:22:11;96106.75;;;4.94;79.60
31357;BME280;60001;48.404;11.738;2023-02-22T03:23:49;96109.47;;;4.99;79.77
31357;BME280;60001;48.404;11.738;2023-02-22T03:25:31;96108.81;;;5.04;80.13
31357;BME280;60001;48.404;11.738;2023-02-22T03:27:08;96108.59;;;5.05;80.61
31357;BME280;60001;48.404;11.738;2023-02-22T03:28:46;96111.91;;;5.12;80.04
31357;BME280;60001;48.404;11.738;2023-02-22T03:30:23;96109.66;;;5.16;80.81
31357;BME280;60001;48.404;11.738;2023-02-22T03:31:58;96116.72;;;5.15;79.74
31357;BME280;60001;48.404;11.738;2023-02-22T03:33:40;96112.72;;;5.13;79.87
31357;BME280;60001;48.404;11.738;2023-02-22T03:35:19;96108.81;;;5.04;78.78
31357;BME280;60001;48.404;11.738;2023-02-22T03:36:58;96106.63;;;5.01;78.48
31357;BME280;60001;48.404;11.738;2023-02-22T03:38:35;96098.06;;;4.93;78.67
31357;BME280;60001;48.404;11.738;2023-02-22T03:40:12;96112.78;;;4.94;78.57
31357;BME280;60001;48.404;11.738;2023-02-22T03:41:48;96102.50;;;4.93;78.74
31357;BME280;60001;48.404;11.738;2023-02-22T03:43:26;96102.88;;;4.97;80.05
31357;BME280;60001;48.404;11.738;2023-02-22T03:45:02;96109.25;;;5.01;79.91
31357;BME280;60001;48.404;11.738;2023-02-22T03:46:38;96103.81;;;5.02;79.51
31357;BME280;60001;48.404;11.738;2023-02-22T03:48:19;96113.25;;;5.03;79.71
31357;BME280;60001;48.404;11.738;2023-02-22T03:49:59;96108.03;;;5.03;79.03
31357;BME280;60001;48.404;11.738;2023-02-22T03:51:36;96102.66;;;4.98;78.42
31357;BME280;60001;48.404;11.738;2023-02-22T03:53:10;96105.72;;;4.95;79.24
31357;BME280;60001;48.404;11.738;2023-02-22T03:54:42;96109.34;;;4.94;78.42
31357;BME280;60001;48.404;11.738;2023-02-22T03:56:19;96110.81;;;4.90;78.95
31357;BME280;60001;48.404;11.738;2023-02-22T03:57:57;96119.09;;;4.87;79.00
31357;BME280;60001;48.404;11.738;2023-02-22T03:59:29;96120.53;;;4.83;78.30
31357;BME280;60001;48.404;11.738;2023-02-22T04:01:01;96123.59;;;4.80;78.41
31357;BME280;60001;48.404;11.738;2023-02-22T04:02:34;96125.84;;;4.76;77.66
31357;BME280;60001;48.404;11.738;2023-02-22T04:04:04;96129.13;;;4.72;77.59
31357;BME280;60001;48.404;11.738;2023-02-22T04:05:36;96121.34;;;4.65;77.98
31357;BME280;60001;48.404;11.738;2023-02-22T04:07:08;96129.84;;;4.60;77.74
31357;BME280;60001;48.404;11.738;2023-02-22T04:08:41;96121.47;;;4.52;78.13
31357;BME280;60001;48.404;11.738;2023-02-22T04:10:15;96131.53;;;4.55;78.60
31357;BME280;60001;48.404;11.738;2023-02-22T04:11:47;96129.13;;;4.53;78.55
31357;BME280;60001;48.404;11.738;2023-02-22T04:13:19;96134.38;;;4.53;78.74
31357;BME280;60001;48.404;11.738;2023-02-22T04:14:51;96131.53;;;4.55;78.48
31357;BME280;60001;48.404;11.738;2023-02-22T04:16:22;96131.28;;;4.56;78.76
31357;BME280;60001;48.404;11.738;2023-02-22T04:17:54;96133.50;;;4.59;79.12
31357;BME280;60001;48.404;11.738;2023-02-22T04:19:25;96137.91;;;4.59;79.57
31357;BME280;60001;48.404;11.738;2023-02-22T04:20:57;96127.03;;;4.62;78.97
31357;BME280;60001;48.404;11.738;2023-02-22T04:22:28;96132.81;;;4.64;79.47
31357;BME280;60001;48.404;11.738;2023-02-22T04:24:01;96129.19;;;4.65;79.86
31357;BME280;60001;48.404;11.738;2023-02-22T04:25:32;96132.81;;;4.64;79.53
31357;BME280;60001;48.404;11.738;2023-02-22T04:27:04;96139.28;;;4.61;79.24
31357;BME280;60001;48.404;11.738;2023-02-22T04:28:36;96136.53;;;4.56;79.87
31357;BME280;60001;48.404;11.738;2023-02-22T04:30:09;96134.38;;;4.53;79.92
31357;BME280;60001;48.404;11.738;2023-02-22T04:31:41;96134.56;;;4.52;79.51
31357;BME280;60001;48.404;11.738;2023-02-22T04:33:12;96134.78;;;4.50;79.71
31357;BME280;60001;48.404;11.738;2023-02-22T04:34:45;96132.16;;;4.50;80.00
31357;BME280;60001;48.404;11.738;2023-02-22T04:36:17;96128.75;;;4.50;79.69
31357;BME280;60001;48.404;11.738;2023-02-22T04:37:49;96127.53;;;4.52;79.81
31357;BME280;60001;48.404;11.738;2023-02-22T04:39:22;96122.88;;;4.54;79.89
31357;BME280;60001;48.404;11.738;2023-02-22T04:40:54;96125.50;;;4.54;80.31
31357;BME280;60001;48.404;11.738;2023-02-22T04:42:26;96118.00;;;4.58;80.86
31357;BME280;60001;48.404;11.738;2023-02-22T04:43:58;96113.38;;;4.60;81.19
31357;BME280;60001;48.404;11.738;2023-02-22T04:45:30;96113.31;;;4.66;81.22
31357;BME280;60001;48.404;11.738;2023-02-22T04:47:01;96113.66;;;4.70;81.95
31357;BME280;60001;48.404;11.738;2023-02-22T04:48:33;96108.78;;;4.74;81.51
31357;BME280;60001;48.404;11.738;2023-02-22T04:50:06;96114.38;;;4.77;82.16
31357;BME280;60001;48.404;11.738;2023-02-22T04:51:38;96109.28;;;4.82;81.91
31357;BME280;60001;48.404;11.738;2023-02-22T04:53:11;96106.66;;;4.82;81.87
31357;BME280;60001;48.404;11.738;2023-02-22T04:54:45;96101.78;;;4.86;81.64
31357;BME280;60001;48.404;11.738;2023-02-22T04:56:17;96099.16;;;4.86;81.98
31357;BME280;60001;48.404;11.738;2023-02-22T04:57:48;96104.41;;;4.86;81.42
31357;BME280;60001;48.404;11.738;2023-02-22T04:59:20;96107.25;;;4.84;80.72
31357;BME280;60001;48.404;11.738;2023-02-22T05:00:50;96106.91;;;4.81;80.51
31357;BME280;60001;48.404;11.738;2023-02-22T05:02:22;96111.41;;;4.74;80.08
31357;BME280;60001;48.404;11.738;2023-02-22T05:03:54;96114.09;;;4.67;79.54
31357;BME280;60001;48.404;11.738;2023-02-22T05:05:26;96108.16;;;4.60;79.27
31357;BME280;60001;48.404;11.738;2023-02-22T05:06:58;96105.59;;;4.53;78.74
31357;BME280;60001;48.404;11.738;2023-02-22T05:08:31;96104.66;;;4.48;78.98
31357;BME280;60001;48.404;11.738;2023-02-22T05:10:05;96109.50;;;4.44;79.47
31357;BME280;60001;48.404;11.738;2023-02-22T05:11:36;96101.88;;;4.43;79.69
31357;BME280;60001;48.404;11.738;2023-02-22T05:13:07;96099.50;;;4.41;79.40
31357;BME280;60001;48.404;11.738;2023-02-22T05:14:39;96102.53;;;4.38;79.57
31357;BME280;60001;48.404;11.738;2023-02-22T05:16:12;96106.94;;;4.37;79.80
31357;BME280;60001;48.404;11.738;2023-02-22T05:17:42;96096.72;;;4.36;79.28
31357;BME280;60001;48.404;11.738;2023-02-22T05:19:14;96104.56;;;4.36;79.81
31357;BME280;60001;48.404;11.738;2023-02-22T05:20:45;96102.97;;;4.35;79.74
31357;BME280;60001;48.404;11.738;2023-02-22T05:22:17;96100.78;;;4.32;79.43
31357;BME280;60001;48.404;11.738;2023-02-22T05:23:48;96103.59;;;4.30;79.89
31357;BME280;60001;48.404;11.738;2023-02-22T05:25:22;96099.63;;;4.28;79.22
31357;BME280;60001;48.404;11.738;2023-02-22T05:26:53;96094.84;;;4.25;79.76
31357;BME280;60001;48.404;11.738;2023-02-22T05:28:26;96099.28;;;4.24;79.72
31357;BME280;60001;48.404;11.738;2023-02-22T05:29:58;96094.84;;;4.25;80.04
31357;BME280;60001;48.404;11.738;2023-02-22T05:31:30;96092.41;;;4.23;79.51
31357;BME280;60001;48.404;11.738;2023-02-22T05:33:01;96090.81;;;4.22;79.62
31357;BME280;60001;48.404;11.738;2023-02-22T05:34:32;96089.44;;;4.20;79.58
31357;BME280;60001;48.404;11.738;2023-02-22T05:36:05;96089.06;;;4.16;79.50
31357;BME280;60001;48.404;11.738;2023-02-22T05:37:37;96082.69;;;4.12;79.22
31357;BME280;60001;48.404;11.738;2023-02-22T05:39:08;96084.94;;;4.08;79.07
31357;BME280;60001;48.404;11.738;2023-02-22T05:40:41;96082.19;;;4.03;79.44
31357;BME280;60001;48.404;11.738;2023-02-22T05:42:13;96087.03;;;4.00;79.05
31357;BME280;60001;48.404;11.738;2023-02-22T05:43:45;96079.47;;;3.92;78.69
31357;BME280;60001;48.404;11.738;2023-02-22T05:45:19;96079.69;;;3.90;79.11
31357;BME280;60001;48.404;11.738;2023-02-22T05:46:51;96085.31;;;3.87;78.75
31357;BME280;60001;48.404;11.738;2023-02-22T05:48:23;96073.91;;;3.81;79.14
31357;BME280;60001;48.404;11.738;2023-02-22T05:49:54;96068.75;;;3.75;78.56
31357;BME280;60001;48.404;11.738;2023-02-22T05:51:26;96081.81;;;3.75;78.80
31357;BME280;60001;48.404;11.738;2023-02-22T05:52:58;96080.44;;;3.72;79.33
31357;BME280;60001;48.404;11.738;2023-02-22T05:54:30;96080.66;;;3.71;79.89
31357;BME280;60001;48.404;11.738;2023-02-22T05:56:04;96078.44;;;3.68;79.48
31357;BME280;60001;48.404;11.738;2023-02-22T05:57:36;96080.25;;;3.67;79.48
31357;BME280;60001;48.404;11.738;2023-02-22T05:59:06;96081.84;;;3.68;80.19
31357;BME280;60001;48.404;11.738;2023-02-22T06:00:38;96079.47;;;3.67;79.67
31357;BME280;60001;48.404;11.738;2023-02-22T06:02:10;96084.47;;;3.68;79.82
31357;BME280;60001;48.404;11.738;2023-02-22T06:03:42;96082.69;;;3.69;80.13
31357;BME280;60001;48.404;11.738;2023-02-22T06:05:14;96088.47;;;3.71;80.16
31357;BME280;60001;48.404;11.738;2023-02-22T06:06:44;96083.84;;;3.73;80.58
31357;BME280;60001;48.404;11.738;2023-02-22T06:08:16;96082.81;;;3.74;80.08
31357;BME280;60001;48.404;11.738;2023-02-22T06:09:48;96089.63;;;3.75;80.46
31357;BME280;60001;48.404;11.738;2023-02-22T06:11:21;96083.63;;;3.74;79.83
31357;BME280;60001;48.404;11.738;2023-02-22T06:12:54;96093.25;;;3.74;80.34
31357;BME280;60001;48.404;11.738;2023-02-22T06:14:26;96089.84;;;3.73;79.65
31357;BME280;60001;48.404;11.738;2023-02-22T06:15:57;96088.91;;;3.68;80.14
31357;BME280;60001;48.404;11.738;2023-02-22T06:17:29;96096.31;;;3.71;79.42
31357;BME280;60001;48.404;11.738;2023-02-22T06:19:01;96099.94;;;3.70;80.24
31357;BME280;60001;48.404;11.738;2023-02-22T06:20:32;96099.16;;;3.69;79.86
31357;BME280;60001;48.404;11.738;2023-02-22T06:22:05;96077.75;;;3.54;79.52
31357;BME280;60001;48.404;11.738;2023-02-22T06:23:37;96096.59;;;3.63;79.33
31357;BME280;60001;48.404;11.738;2023-02-22T06:25:12;96095.78;;;3.62;79.14
31357;BME280;60001;48.404;11.738;2023-02-22T06:26:45;96097.00;;;3.60;79.94
31357;BME280;60001;48.404;11.738;2023-02-22T06:28:17;96103.22;;;3.58;80.04
31357;BME280;60001;48.404;11.738;2023-02-22T06:29:49;96107.44;;;3.60;79.43
31357;BME280;60001;48.404;11.738;2023-02-22T06:31:20;96101.19;;;3.61;79.75
31357;BME280;60001;48.404;11.738;2023-02-22T06:32:52;96109.03;;;3.61;80.35
31357;BME280;60001;48.404;11.738;2023-02-22T06:34:24;96107.81;;;3.63;80.29
31357;BME280;60001;48.404;11.738;2023-02-22T06:35:56;96108.41;;;3.65;80.35
31357;BME280;60001;48.404;11.738;2023-02-22T06:37:28;96101.94;;;3.68;80.70
31357;BME280;60001;48.404;11.738;2023-02-22T06:38:59;96105.16;;;3.70;80.21
31357;BME280;60001;48.404;11.738;2023-02-22T06:40:31;96104.16;;;3.71;80.37
31357;BME280;60001;48.404;11.738;2023-02-22T06:42:04;96104.50;;;3.74;80.21
31357;BME280;60001;48.404;11.738;2023-02-22T06:43:36;96101.72;;;3.76;79.88
31357;BME280;60001;48.404;11.738;2023-02-22T06:45:08;96104.69;;;3.79;80.51
31357;BME280;60001;48.404;11.738;2023-02-22T06:46:46;96105.66;;;3.85;80.71
31357;BME280;60001;48.404;11.738;2023-02-22T06:48:18;96104.78;;;3.91;80.38
31357;BME280;60001;48.404;11.738;2023-02-22T06:49:54;96103.13;;;3.97;80.56
31357;BME280;60001;48.404;11.738;2023-02-22T06:51:25;96104.88;;;4.03;80.65
31357;BME280;60001;48.404;11.738;2023-02-22T06:52:58;96101.28;;;4.04;80.69
31357;BME280;60001;48.404;11.738;2023-02-22T06:54:30;96107.00;;;4.12;80.26
31357;BME280;60001;48.404;11.738;2023-02-22T06:56:02;96102.94;;;4.17;80.49
31357;BME280;60001;48.404;11.738;2023-02-22T06:57:35;96103.09;;;4.22;80.32
31357;BME280;60001;48.404;11.738;2023-02-22T06:59:09;96098.88;;;4.21;80.71
31357;BME280;60001;48.404;11.738;2023-02-22T07:00:41;96097.00;;;4.28;80.83
31357;BME280;60001;48.404;11.738;2023-02-22T07:02:13;96106.75;;;4.39;81.43
31357;BME280;60001;48.404;11.738;2023-02-22T07:03:48;96104.28;;;4.44;81.39
31357;BME280;60001;48.404;11.738;2023-02-22T07:05:21;96111.03;;;4.52;81.26
31357;BME280;60001;48.404;11.738;2023-02-22T07:06:53;96109.75;;;4.61;81.30
31357;BME280;60001;48.404;11.738;2023-02-22T07:08:24;96111.03;;;4.70;80.96
31357;BME280;60001;48.404;11.738;2023-02-22T07:09:56;96106.66;;;4.82;81.32
31357;BME280;60001;48.404;11.738;2023-02-22T07:11:28;96111.38;;;4.92;81.38
31357;BME280;60001;48.404;11.738;2023-02-22T07:13:01;96107.22;;;5.03;80.87
31357;BME280;60001;48.404;11.738;2023-02-22T07:14:33;96107.47;;;5.13;80.80
31357;BME280;60001;48.404;11.738;2023-02-22T07:16:05;96102.53;;;5.23;81.09
31357;BME280;60001;48.404;11.738;2023-02-22T07:17:37;96108.56;;;5.35;80.59
31357;BME280;60001;48.404;11.738;2023-02-22T07:19:10;96108.63;;;5.47;80.62
31357;BME280;60001;48.404;11.738;2023-02-22T07:20:42;96103.28;;;5.54;80.36
31357;BME280;60001;48.404;11.738;2023-02-22T07:22:14;96117.34;;;5.71;80.16
31357;BME280;60001;48.404;11.738;2023-02-22T07:23:51;96116.13;;;5.85;80.47
31357;BME280;60001;48.404;11.738;2023-02-22T07:25:24;96111.94;;;5.96;80.45
31357;BME280;60001;48.404;11.738;2023-02-22T07:26:55;96106.03;;;6.00;80.08
31357;BME280;60001;48.404;11.738;2023-02-22T07:28:29;96109.88;;;6.10;79.65
31357;BME280;60001;48.404;11.738;2023-02-22T07:30:00;96111.38;;;6.17;79.75
31357;BME280;60001;48.404;11.738;2023-02-22T07:31:34;96108.41;;;6.25;80.17
31357;BME280;60001;48.404;11.738;2023-02-22T07:33:08;96105.66;;;6.32;80.37
31357;BME280;60001;48.404;11.738;2023-02-22T07:34:40;96102.13;;;6.38;79.86
31357;BME280;60001;48.404;11.738;2023-02-22T07:36:12;96096.88;;;6.50;80.15
31357;BME280;60001;48.404;11.738;2023-02-22T07:37:47;96107.81;;;6.58;80.27
31357;BME280;60001;48.404;11.738;2023-02-22T07:39:19;96101.19;;;6.68;80.45
31357;BME280;60001;48.404;11.738;2023-02-22T07:40:50;96109.56;;;6.81;79.88
31357;BME280;60001;48.404;11.738;2023-02-22T07:42:22;96112.41;;;6.92;79.39
31357;BME280;60001;48.404;11.738;2023-02-22T07:43:55;96093.34;;;6.96;79.22
31357;BME280;60001;48.404;11.738;2023-02-22T07:45:29;96094.16;;;6.97;78.37
31357;BME280;60001;48.404;11.738;2023-02-22T07:47:01;96103.25;;;7.06;77.57
31357;BME280;60001;48.404;11.738;2023-02-22T07:48:33;96110.69;;;6.97;76.78
31357;BME280;60001;48.404;11.738;2023-02-22T07:50:05;96105.69;;;6.96;77.17
31357;BME280;60001;48.404;11.738;2023-02-22T07:51:36;96093.56;;;6.95;77.24
31357;BME280;60001;48.404;11.738;2023-02-22T07:53:12;96099.97;;;6.99;76.96
31357;BME280;60001;48.404;11.738;2023-02-22T07:54:45;96095.06;;;7.02;76.83
31357;BME280;60001;48.404;11.738;2023-02-22T07:56:17;96097.75;;;7.07;77.38
31357;BME280;60001;48.404;11.738;2023-02-22T07:57:50;96101.38;;;7.18;77.33
31357;BME280;60001;48.404;11.738;2023-02-22T07:59:24;96101.47;;;7.23;76.77
31357;BME280;60001;48.404;11.738;2023-02-22T08:00:58;96103.16;;;7.29;77.28
31357;BME280;60001;48.404;11.738;2023-02-22T08:02:31;96096.94;;;7.35;77.21
31357;BME280;60001;48.404;11.738;2023-02-22T08:04:03;96105.81;;;7.46;76.94
31357;BME280;60001;48.404;11.738;2023-02-22T08:05:37;96097.31;;;7.56;76.42
31357;BME280;60001;48.404;11.738;2023-02-22T08:07:09;96091.66;;;7.64;75.92
31357;BME280;60001;48.404;11.738;2023-02-22T08:08:41;96096.59;;;7.77;76.10
31357;BME280;60001;48.404;11.738;2023-02-22T08:10:15;96099.47;;;7.92;75.87
31357;BME280;60001;48.404;11.738;2023-02-22T08:11:47;96093.84;;;8.01;74.81
31357;BME280;60001;48.404;11.738;2023-02-22T08:13:20;96097.66;;;8.10;75.42
31357;BME280;60001;48.404;11.738;2023-02-22T08:14:54;96088.25;;;8.14;74.59
31357;BME280;60001;48.404;11.738;2023-02-22T08:16:25;96087.22;;;8.15;73.84
31357;BME280;60001;48.404;11.738;2023-02-22T08:17:59;96090.06;;;8.13;73.59
31357;BME280;60001;48.404;11.738;2023-02-22T08:19:32;96085.03;;;8.12;73.40
31357;BME280;60001;48.404;11.738;2023-02-22T08:21:04;96091.81;;;8.24;74.00
31357;BME280;60001;48.404;11.738;2023-02-22T08:22:36;96087.53;;;8.35;73.65